createdAt,value
2019-03-06T07:28:21.505Z,10.30
2019-03-06T07:29:19.886Z,18.20
2019-03-06T07:30:20.489Z,13.00
2019-03-06T07:31:19.882Z,11.50
2019-03-06T07:32:19.860Z,12.50
2019-03-06T07:33:19.880Z,10.90
2019-03-06T07:34:19.838Z,14.00
2019-03-06T07:35:22.488Z,20.60
2019-03-06T07:36:19.827Z,14.10
2019-03-06T07:37:28.423Z,12.40
2019-03-06T07:38:19.794Z,12.20
2019-03-06T07:39:19.787Z,13.60
2019-03-06T07:40:22.495Z,13.10
2019-03-06T07:41:19.756Z,14.50
2019-03-06T07:42:19.749Z,13.70
2019-03-06T07:43:19.766Z,14.30
2019-03-06T07:44:19.727Z,14.50
2019-03-06T07:45:19.732Z,16.50
2019-03-06T07:46:19.704Z,16.00
2019-03-06T07:47:19.735Z,13.80
2019-03-06T07:48:19.692Z,19.90
2019-03-06T07:49:19.678Z,14.60
2019-03-06T07:50:19.665Z,14.30
2019-03-06T07:51:19.657Z,13.40
2019-03-06T07:52:19.639Z,12.40
2019-03-06T07:53:19.679Z,17.20
2019-03-06T07:54:19.625Z,11.90
2019-03-06T07:56:18.597Z,14.00
2019-03-06T07:57:19.596Z,16.10
2019-03-06T07:58:19.573Z,15.50
2019-03-06T07:59:19.593Z,17.90
2019-03-06T08:00:20.035Z,15.80
2019-03-06T08:01:19.547Z,17.40
2019-03-06T08:02:19.538Z,12.30
2019-03-06T08:03:19.529Z,14.10
2019-03-06T08:04:19.516Z,12.20
2019-03-06T08:05:19.541Z,13.20
2019-03-06T08:06:19.501Z,13.00
2019-03-06T08:07:19.480Z,14.20
2019-03-06T08:08:19.497Z,17.70
2019-03-06T08:10:18.448Z,18.10
2019-03-06T08:11:19.446Z,14.40
2019-03-06T08:12:20.011Z,15.70
2019-03-06T08:13:19.413Z,14.00
2019-03-06T08:14:22.352Z,16.60
2019-03-06T08:15:19.407Z,21.10
2019-03-06T08:16:19.386Z,12.90
2019-03-06T08:17:19.372Z,12.60
2019-03-06T08:18:19.364Z,14.10
2019-03-06T08:19:19.355Z,13.90
2019-03-06T08:20:21.972Z,11.90
2019-03-06T08:21:19.331Z,13.70
2019-03-06T08:22:19.321Z,13.70
2019-03-06T08:23:19.302Z,14.30
2019-03-06T08:24:19.299Z,13.90
2019-03-06T08:25:19.285Z,12.80
2019-03-06T08:26:19.301Z,17.00
2019-03-06T08:27:19.294Z,11.90
2019-03-06T08:28:19.254Z,17.40
2019-03-06T08:29:19.242Z,16.90
2019-03-06T08:30:19.228Z,16.20
2019-03-06T08:31:19.222Z,20.60
2019-03-06T08:32:19.216Z,15.30
2019-03-06T08:33:19.229Z,15.70
2019-03-06T08:34:19.192Z,17.40
2019-03-06T08:35:19.228Z,15.00
2019-03-06T08:36:19.176Z,14.80
2019-03-06T08:37:19.156Z,16.90
2019-03-06T08:38:19.158Z,18.20
2019-03-06T08:39:19.179Z,15.50
2019-03-06T08:40:19.122Z,18.70
2019-03-06T08:41:19.117Z,14.00
2019-03-06T08:42:19.114Z,15.70
2019-03-06T08:43:19.101Z,23.20
2019-03-06T08:44:19.099Z,14.90
2019-03-06T08:45:19.091Z,14.00
2019-03-06T08:46:19.055Z,13.60
2019-03-06T08:47:19.057Z,17.90
2019-03-06T08:48:19.036Z,15.40
2019-03-06T08:49:19.029Z,12.50
2019-03-06T08:50:19.019Z,15.30
2019-03-06T08:51:19.030Z,17.00
2019-03-06T08:52:18.997Z,15.40
2019-03-06T08:53:18.990Z,15.80
2019-03-06T08:54:18.970Z,15.50
2019-03-06T08:55:18.970Z,13.40
2019-03-06T08:56:18.958Z,16.60
2019-03-06T08:57:18.964Z,14.70
2019-03-06T08:58:18.924Z,14.80
2019-03-06T08:59:18.940Z,14.50
2019-03-06T09:00:18.909Z,13.00
2019-03-06T09:01:18.900Z,18.70
2019-03-06T09:02:18.888Z,17.10
2019-03-06T09:03:18.902Z,17.20
2019-03-06T09:04:18.867Z,16.30
2019-03-06T09:05:21.460Z,15.00
2019-03-06T09:06:19.440Z,14.40
2019-03-06T09:07:18.836Z,20.00
2019-03-06T09:08:18.816Z,18.60
2019-03-06T09:09:18.834Z,19.30
2019-03-06T09:10:18.800Z,23.40
2019-03-06T09:11:18.820Z,15.50
2019-03-06T09:12:18.771Z,20.50
2019-03-06T09:13:18.758Z,18.80
2019-03-06T09:14:18.752Z,16.30
2019-03-06T09:15:18.742Z,18.70
2019-03-06T09:16:18.752Z,17.00
2019-03-06T09:17:18.720Z,16.90
2019-03-06T09:18:18.719Z,14.40
2019-03-06T09:20:18.687Z,19.40
2019-03-06T09:21:18.706Z,15.10
2019-03-06T09:21:26.796Z,15.50
2019-03-06T09:22:18.668Z,15.60
2019-03-06T09:23:23.212Z,14.30
2019-03-06T09:24:18.647Z,13.10
2019-03-06T09:25:18.629Z,18.50
2019-03-06T09:26:18.628Z,11.90
2019-03-06T09:27:18.648Z,17.30
2019-03-06T09:29:17.587Z,15.20
2019-03-06T09:30:19.695Z,12.90
2019-03-06T09:31:18.566Z,12.60
2019-03-06T09:32:18.578Z,15.50
2019-03-06T09:33:18.554Z,11.40
2019-03-06T09:34:18.557Z,11.30
2019-03-06T09:35:18.518Z,9.80
2019-03-06T09:36:19.111Z,13.60
2019-03-06T09:37:19.463Z,12.10
2019-03-06T09:38:18.487Z,11.60
2019-03-06T09:39:18.478Z,16.70
2019-03-06T09:40:18.503Z,13.70
2019-03-06T09:41:18.474Z,13.80
2019-03-06T09:42:18.613Z,13.50
2019-03-06T09:43:18.436Z,11.50
2019-03-06T09:44:18.422Z,11.20
2019-03-06T09:45:18.402Z,11.40
2019-03-06T09:46:18.440Z,12.70
2019-03-06T09:47:18.387Z,14.20
2019-03-06T09:48:18.379Z,14.80
2019-03-06T09:49:18.420Z,14.60
2019-03-06T09:50:18.375Z,16.70
2019-03-06T09:51:18.350Z,14.20
2019-03-06T09:52:18.345Z,14.40
2019-03-06T09:53:18.324Z,14.40
2019-03-06T09:54:18.314Z,16.40
2019-03-06T09:55:39.354Z,14.10
2019-03-06T09:56:18.325Z,12.20
2019-03-06T09:58:17.339Z,12.50
2019-03-06T09:59:18.256Z,15.70
2019-03-06T10:00:18.242Z,11.90
2019-03-06T10:01:18.524Z,8.10
2019-03-06T10:02:20.937Z,14.70
2019-03-06T10:04:26.941Z,10.60
2019-03-06T10:05:27.926Z,10.00
2019-03-06T10:06:28.637Z,8.30
2019-03-06T10:07:27.906Z,14.30
2019-03-06T10:08:27.891Z,7.90
2019-03-06T10:09:27.881Z,8.80
2019-03-06T10:10:27.930Z,8.60
2019-03-06T10:11:27.869Z,6.10
2019-03-06T10:12:30.636Z,8.40
2019-03-06T10:13:27.836Z,9.70
2019-03-06T10:14:27.827Z,8.80
2019-03-06T10:15:27.910Z,7.10
2019-03-06T10:16:27.821Z,5.20
2019-03-06T10:17:27.795Z,4.20
2019-03-06T10:18:27.810Z,6.50
2019-03-06T10:19:29.544Z,6.00
2019-03-06T10:20:27.760Z,4.40
2019-03-06T10:21:28.757Z,3.60
2019-03-06T10:22:27.941Z,5.30
2019-03-06T10:23:27.834Z,4.30
2019-03-06T10:24:27.713Z,4.10
2019-03-06T10:25:30.528Z,6.60
2019-03-06T10:26:28.903Z,5.40
2019-03-06T10:27:27.687Z,10.10
2019-03-06T10:28:28.114Z,5.40
2019-03-06T10:29:27.652Z,6.50
2019-03-06T10:30:27.649Z,4.00
2019-03-06T10:31:27.632Z,5.20
2019-03-06T10:32:27.626Z,9.40
2019-03-06T10:33:27.644Z,6.00
2019-03-06T10:34:27.605Z,3.40
2019-03-06T10:35:27.585Z,3.90
2019-03-06T10:36:27.675Z,2.70
2019-03-06T10:37:27.567Z,3.10
2019-03-06T10:38:27.581Z,3.80
2019-03-06T10:39:27.550Z,5.40
2019-03-06T10:40:27.567Z,3.00
2019-03-06T10:41:27.519Z,3.10
2019-03-06T10:42:28.124Z,6.90
2019-03-06T10:43:27.539Z,5.00
2019-03-06T10:44:29.828Z,3.80
2019-03-06T10:45:27.483Z,8.60
2019-03-06T10:46:27.671Z,5.20
2019-03-06T10:47:27.493Z,3.00
2019-03-06T10:48:27.446Z,6.20
2019-03-06T10:49:27.434Z,4.50
2019-03-06T10:50:30.089Z,6.20
2019-03-06T10:51:27.413Z,5.10
2019-03-06T10:52:27.437Z,4.10
2019-03-06T10:53:27.417Z,4.30
2019-03-06T10:54:27.375Z,3.70
2019-03-06T10:55:27.428Z,3.00
2019-03-06T10:56:27.358Z,4.40
2019-03-06T10:57:27.344Z,6.60
2019-03-06T10:58:27.341Z,3.40
2019-03-06T10:59:32.414Z,7.00
2019-03-06T11:00:27.322Z,4.00
2019-03-06T11:01:27.301Z,6.10
2019-03-06T11:02:27.318Z,11.00
2019-03-06T11:03:27.287Z,5.20
2019-03-06T11:04:27.268Z,4.60
2019-03-06T11:05:27.248Z,4.80
2019-03-06T11:06:27.251Z,5.90
2019-03-06T11:07:27.271Z,5.90
2019-03-06T11:08:27.250Z,12.60
2019-03-06T11:09:28.117Z,6.50
2019-03-06T11:10:27.209Z,4.80
2019-03-06T11:11:27.194Z,4.30
2019-03-06T11:12:27.171Z,5.60
2019-03-06T11:13:27.191Z,7.20
2019-03-06T11:14:27.207Z,14.70
2019-03-06T11:15:27.141Z,6.60
2019-03-06T11:16:27.238Z,6.70
2019-03-06T11:17:27.126Z,6.20
2019-03-06T11:18:27.111Z,6.60
2019-03-06T11:19:27.919Z,8.80
2019-03-06T11:20:27.117Z,6.60
2019-03-06T11:21:27.081Z,7.90
2019-03-06T11:22:27.065Z,6.90
2019-03-06T11:23:27.099Z,8.40
2019-03-06T11:24:27.097Z,5.30
2019-03-06T11:25:27.036Z,7.20
2019-03-06T11:26:27.023Z,6.20
2019-03-06T11:27:27.061Z,6.70
2019-03-06T11:28:27.003Z,8.10
2019-03-06T11:29:26.990Z,8.30
2019-03-06T11:30:27.021Z,7.30
2019-03-06T11:31:26.959Z,6.50
2019-03-06T11:32:27.016Z,7.50
2019-03-06T11:33:26.951Z,7.30
2019-03-06T11:34:26.945Z,8.20
2019-03-06T11:35:26.920Z,9.90
2019-03-06T11:36:26.919Z,7.70
2019-03-06T11:37:26.897Z,7.20
2019-03-06T11:38:26.920Z,6.90
2019-03-06T11:39:26.881Z,7.00
2019-03-06T11:40:26.865Z,8.30
2019-03-06T11:41:26.860Z,7.70
2019-03-06T11:42:26.884Z,7.50
2019-03-06T11:43:26.834Z,8.60
2019-03-06T11:44:26.877Z,11.80
2019-03-06T11:45:26.807Z,10.50
2019-03-06T11:46:26.797Z,9.90
2019-03-06T11:47:26.802Z,8.70
2019-03-06T11:48:26.779Z,9.40
2019-03-06T11:49:26.774Z,10.40
2019-03-06T11:50:26.817Z,10.50
2019-03-06T11:51:26.750Z,10.40
2019-03-06T11:52:26.738Z,11.90
2019-03-06T11:53:26.722Z,12.40
2019-03-06T11:54:26.716Z,13.80
2019-03-06T11:55:26.709Z,11.90
2019-03-06T11:56:26.713Z,13.50
2019-03-06T11:57:26.677Z,12.20
2019-03-06T11:58:26.671Z,12.30
2019-03-06T11:59:26.685Z,13.60
2019-03-06T12:00:26.637Z,13.90
2019-03-06T12:01:26.631Z,13.30
2019-03-06T12:02:26.625Z,14.10
2019-03-06T12:03:26.611Z,13.20
2019-03-06T12:04:26.595Z,13.10
2019-03-06T12:05:26.616Z,14.70
2019-03-06T12:06:26.581Z,13.70
2019-03-06T12:07:26.568Z,13.80
2019-03-06T12:08:26.564Z,14.00
2019-03-06T12:09:26.549Z,16.40
2019-03-06T12:10:26.526Z,13.80
2019-03-06T12:11:26.575Z,13.60
2019-03-06T12:12:26.505Z,13.20
2019-03-06T12:13:26.497Z,12.80
2019-03-06T12:14:26.491Z,14.10
2019-03-06T12:15:26.520Z,13.30
2019-03-06T12:16:26.467Z,12.10
2019-03-06T12:17:26.492Z,12.60
2019-03-06T12:18:26.464Z,12.00
2019-03-06T12:19:26.433Z,11.70
2019-03-06T12:20:26.422Z,11.40
2019-03-06T12:21:26.423Z,13.60
2019-03-06T12:22:26.410Z,11.40
2019-03-06T12:23:26.439Z,12.80
2019-03-06T12:24:26.378Z,14.50
2019-03-06T12:25:26.379Z,12.30
2019-03-06T12:26:26.351Z,13.10
2019-03-06T12:27:26.355Z,11.50
2019-03-06T12:28:26.334Z,12.40
2019-03-06T12:29:27.843Z,10.80
2019-03-06T12:30:26.311Z,14.00
2019-03-06T12:31:26.305Z,11.10
2019-03-06T12:32:27.602Z,12.20
2019-03-06T12:33:26.280Z,11.00
2019-03-06T12:34:26.290Z,11.60
2019-03-06T12:35:26.254Z,10.80
2019-03-06T12:36:26.243Z,10.70
2019-03-06T12:37:26.230Z,11.10
2019-03-06T12:38:26.258Z,10.30
2019-03-06T12:39:26.214Z,9.80
2019-03-06T12:40:26.212Z,9.90
2019-03-06T12:41:26.193Z,10.70
2019-03-06T12:42:26.204Z,11.30
2019-03-06T12:43:26.204Z,10.80
2019-03-06T12:44:26.159Z,10.80
2019-03-06T12:45:27.339Z,11.10
2019-03-06T12:46:26.138Z,11.20
2019-03-06T12:47:26.119Z,11.70
2019-03-06T12:48:26.111Z,11.50
2019-03-06T12:49:26.132Z,13.00
2019-03-06T12:50:26.089Z,10.40
2019-03-06T12:51:26.081Z,10.90
2019-03-06T12:52:26.069Z,14.60
2019-03-06T12:53:26.057Z,9.70
2019-03-06T12:54:26.050Z,10.20
2019-03-06T12:55:26.063Z,10.60
2019-03-06T12:56:26.029Z,10.20
2019-03-06T12:57:26.018Z,11.10
2019-03-06T12:58:26.003Z,12.70
2019-03-06T12:59:26.023Z,10.70
2019-03-06T13:00:25.985Z,10.50
2019-03-06T13:01:25.968Z,10.20
2019-03-06T13:02:25.952Z,10.30
2019-03-06T13:03:25.940Z,9.70
2019-03-06T13:04:25.921Z,9.50
2019-03-06T13:05:25.948Z,12.10
2019-03-06T13:06:25.915Z,9.20
2019-03-06T13:07:25.899Z,9.30
2019-03-06T13:08:25.889Z,8.70
2019-03-06T13:09:25.926Z,8.20
2019-03-06T13:10:25.877Z,9.10
2019-03-06T13:11:25.861Z,9.60
2019-03-06T13:12:25.845Z,9.70
2019-03-06T13:13:35.223Z,10.40
2019-03-06T13:14:25.833Z,14.80
2019-03-06T13:15:25.839Z,12.80
2019-03-06T13:16:25.807Z,10.60
2019-03-06T13:17:25.803Z,9.00
2019-03-06T13:18:25.785Z,8.10
2019-03-06T13:19:25.799Z,10.70
2019-03-06T13:20:25.762Z,9.10
2019-03-06T13:21:25.756Z,8.30
2019-03-06T13:22:25.743Z,8.20
2019-03-06T13:23:25.732Z,7.30
2019-03-06T13:24:25.748Z,7.90
2019-03-06T13:25:25.700Z,7.70
2019-03-06T13:26:25.696Z,7.60
2019-03-06T13:27:25.695Z,6.90
2019-03-06T13:28:25.683Z,8.80
2019-03-06T13:29:25.947Z,13.30
2019-03-06T13:30:25.692Z,10.10
2019-03-06T13:31:25.642Z,12.00
2019-03-06T13:32:25.651Z,6.80
2019-03-06T13:33:25.625Z,6.30
2019-03-06T13:34:25.651Z,8.10
2019-03-06T13:35:25.600Z,10.00
2019-03-06T13:36:25.588Z,14.30
2019-03-06T13:37:25.574Z,7.70
2019-03-06T13:38:25.565Z,7.10
2019-03-06T13:39:25.559Z,6.40
2019-03-06T13:40:25.577Z,6.80
2019-03-06T13:41:25.541Z,6.00
2019-03-06T13:42:26.682Z,7.70
2019-03-06T13:43:25.516Z,11.10
2019-03-06T13:44:25.508Z,9.30
2019-03-06T13:45:25.519Z,5.80
2019-03-06T13:46:25.479Z,6.40
2019-03-06T13:47:25.468Z,13.50
2019-03-06T13:48:25.453Z,10.00
2019-03-06T13:49:25.447Z,10.30
2019-03-06T13:50:25.636Z,6.30
2019-03-06T13:51:25.415Z,6.70
2019-03-06T13:52:25.414Z,4.70
2019-03-06T13:53:26.078Z,5.90
2019-03-06T13:54:25.391Z,5.80
2019-03-06T13:55:25.382Z,7.90
2019-03-06T13:56:25.397Z,6.40
2019-03-06T13:57:25.361Z,5.40
2019-03-06T13:58:25.342Z,7.60
2019-03-06T13:59:25.334Z,6.20
2019-03-06T14:00:25.363Z,6.60
2019-03-06T14:01:25.311Z,4.90
2019-03-06T14:02:25.320Z,6.50
2019-03-06T14:03:25.292Z,5.80
2019-03-06T14:04:25.293Z,4.80
2019-03-06T14:05:25.302Z,5.80
2019-03-06T14:06:25.258Z,5.40
2019-03-06T14:07:25.242Z,5.90
2019-03-06T14:08:25.239Z,4.60
2019-03-06T14:09:25.232Z,4.50
2019-03-06T14:10:25.220Z,4.50
2019-03-06T14:11:25.247Z,5.40
2019-03-06T14:12:25.198Z,7.90
2019-03-06T14:13:25.177Z,6.30
2019-03-06T14:14:25.171Z,5.80
2019-03-06T14:15:25.185Z,4.70
2019-03-06T14:16:25.143Z,7.70
2019-03-06T14:17:25.137Z,6.70
2019-03-06T14:18:46.139Z,4.30
2019-03-06T14:19:25.111Z,5.00
2019-03-06T14:20:25.098Z,4.20
2019-03-06T14:21:25.125Z,7.60
2019-03-06T14:22:25.077Z,5.00
2019-03-06T14:23:25.065Z,6.30
2019-03-06T14:24:25.123Z,5.90
2019-03-06T14:25:25.071Z,5.00
2019-03-06T14:26:25.035Z,6.10
2019-03-06T14:27:25.050Z,4.40
2019-03-06T14:28:25.012Z,8.00
2019-03-06T14:29:25.000Z,4.20
2019-03-06T14:30:25.038Z,4.50
2019-03-06T14:31:24.985Z,5.10
2019-03-06T14:32:24.961Z,5.90
2019-03-06T14:33:27.574Z,7.30
2019-03-06T14:34:40.006Z,7.80
2019-03-06T14:35:24.963Z,7.20
2019-03-06T14:36:24.919Z,7.10
2019-03-06T14:37:47.607Z,8.30
2019-03-06T14:38:24.927Z,13.20
2019-03-06T14:39:24.890Z,6.70
2019-03-06T14:40:24.875Z,6.40
2019-03-06T14:41:24.890Z,4.60
2019-03-06T14:42:24.845Z,4.30
2019-03-06T14:43:24.846Z,6.30
2019-03-06T14:44:24.837Z,6.60
2019-03-06T14:45:24.878Z,6.80
2019-03-06T14:46:24.831Z,4.10
2019-03-06T14:47:27.576Z,6.80
2019-03-06T14:48:24.805Z,5.90
2019-03-06T14:49:24.770Z,3.50
2019-03-06T14:50:24.760Z,4.70
2019-03-06T14:51:24.764Z,10.30
2019-03-06T14:52:24.775Z,5.40
2019-03-06T14:53:24.722Z,7.80
2019-03-06T14:54:24.722Z,4.90
2019-03-06T14:55:24.708Z,5.60
2019-03-06T14:56:24.692Z,4.80
2019-03-06T14:57:24.685Z,3.70
2019-03-06T14:58:24.692Z,6.20
2019-03-06T14:59:24.664Z,8.30
2019-03-06T15:00:24.647Z,7.80
2019-03-06T15:01:24.635Z,4.30
2019-03-06T15:02:24.633Z,3.60
2019-03-06T15:03:24.617Z,5.60
2019-03-06T15:04:24.629Z,4.10
2019-03-06T15:05:24.592Z,4.20
2019-03-06T15:06:24.585Z,3.90
2019-03-06T15:07:24.567Z,4.30
2019-03-06T15:08:24.560Z,4.30
2019-03-06T15:09:24.538Z,3.90
2019-03-06T15:10:24.570Z,4.20
2019-03-06T15:11:32.725Z,3.50
2019-03-06T15:12:24.514Z,4.40
2019-03-06T15:13:24.500Z,4.00
2019-03-06T15:14:24.486Z,6.50
2019-03-06T15:15:24.476Z,4.10
2019-03-06T15:16:24.504Z,2.90
2019-03-06T15:17:24.462Z,6.80
2019-03-06T15:18:24.441Z,6.40
2019-03-06T15:19:24.434Z,5.90
2019-03-06T15:20:24.420Z,4.00
2019-03-06T15:21:24.409Z,3.20
2019-03-06T15:22:24.422Z,3.60
2019-03-06T15:23:24.397Z,5.80
2019-03-06T15:24:24.370Z,5.20
2019-03-06T15:25:24.397Z,4.20
2019-03-06T15:26:39.470Z,10.10
2019-03-06T15:27:24.337Z,4.40
2019-03-06T15:28:45.335Z,5.90
2019-03-06T15:29:24.325Z,4.20
2019-03-06T15:30:24.346Z,7.50
2019-03-06T15:31:24.298Z,3.10
2019-03-06T15:32:24.302Z,5.80
2019-03-06T15:33:31.351Z,6.10
2019-03-06T15:34:24.262Z,5.10
2019-03-06T15:35:24.249Z,4.00
2019-03-06T15:36:24.275Z,2.90
2019-03-06T15:37:24.269Z,6.80
2019-03-06T15:38:24.220Z,5.20
2019-03-06T15:39:24.203Z,3.10
2019-03-06T15:40:24.187Z,5.10
2019-03-06T15:41:24.189Z,3.70
2019-03-06T15:42:24.196Z,5.90
2019-03-06T15:43:24.176Z,4.80
2019-03-06T15:44:24.154Z,4.40
2019-03-06T15:45:24.135Z,3.10
2019-03-06T15:46:24.151Z,3.60
2019-03-06T15:47:33.255Z,2.80
2019-03-06T15:48:25.137Z,4.30
2019-03-06T15:49:24.089Z,6.20
2019-03-06T15:50:24.078Z,8.90
2019-03-06T15:51:24.107Z,3.60
2019-03-06T15:52:24.058Z,5.00
2019-03-06T15:53:25.354Z,4.60
2019-03-06T15:54:24.045Z,5.00
2019-03-06T15:55:24.024Z,4.10
2019-03-06T15:56:24.018Z,5.20
2019-03-06T15:57:24.030Z,5.10
2019-03-06T15:58:23.995Z,4.90
2019-03-06T15:59:23.979Z,4.00
2019-03-06T16:00:23.974Z,6.40
2019-03-06T16:01:23.990Z,4.30
2019-03-06T16:02:39.660Z,5.90
2019-03-06T16:03:23.995Z,6.40
2019-03-06T16:04:23.931Z,4.50
2019-03-06T16:05:23.919Z,10.80
2019-03-06T16:06:25.341Z,6.10
2019-03-06T16:07:23.930Z,5.60
2019-03-06T16:08:23.890Z,3.50
2019-03-06T16:09:23.877Z,3.80
2019-03-06T16:10:23.875Z,4.80
2019-03-06T16:11:23.857Z,4.20
2019-03-06T16:12:23.847Z,6.30
2019-03-06T16:13:23.859Z,6.90
2019-03-06T16:14:23.814Z,3.30
2019-03-06T16:15:23.805Z,3.80
2019-03-06T16:16:23.807Z,3.70
2019-03-06T16:17:23.785Z,4.10
2019-03-06T16:18:26.552Z,4.80
2019-03-06T16:19:23.800Z,4.90
2019-03-06T16:20:23.755Z,6.90
2019-03-06T16:21:23.742Z,7.10
2019-03-06T16:22:23.767Z,5.90
2019-03-06T16:23:23.720Z,6.90
2019-03-06T16:24:23.713Z,6.40
2019-03-06T16:25:40.169Z,6.50
2019-03-06T16:26:23.720Z,10.90
2019-03-06T16:27:23.676Z,5.70
2019-03-06T16:28:51.728Z,6.60
2019-03-06T16:29:23.814Z,5.60
2019-03-06T16:30:23.647Z,7.80
2019-03-06T16:31:23.635Z,9.50
2019-03-06T16:32:23.663Z,5.90
2019-03-06T16:33:23.618Z,8.30
2019-03-06T16:34:23.600Z,5.20
2019-03-06T16:35:23.589Z,4.90
2019-03-06T16:36:23.583Z,4.30
2019-03-06T16:37:23.698Z,10.80
2019-03-06T16:38:23.559Z,5.00
2019-03-06T16:39:23.546Z,7.00
2019-03-06T16:40:23.538Z,5.60
2019-03-06T16:41:23.578Z,4.30
2019-03-06T16:42:23.514Z,5.40
2019-03-06T16:43:23.502Z,5.40
2019-03-06T16:44:23.492Z,5.80
2019-03-06T16:45:23.529Z,5.50
2019-03-06T16:46:24.044Z,4.40
2019-03-06T16:47:23.498Z,4.80
2019-03-06T16:48:23.440Z,4.80
2019-03-06T16:49:23.450Z,5.70
2019-03-06T16:50:23.432Z,5.70
2019-03-06T16:51:23.417Z,6.60
2019-03-06T16:52:23.401Z,6.50
2019-03-06T16:53:23.417Z,4.60
2019-03-06T16:54:23.407Z,4.50
2019-03-06T16:55:23.382Z,6.30
2019-03-06T16:56:23.361Z,8.40
2019-03-06T16:57:23.938Z,5.40
2019-03-06T16:58:23.342Z,5.00
2019-03-06T16:59:23.356Z,4.90
2019-03-06T17:00:23.318Z,7.10
2019-03-06T17:01:23.302Z,6.30
2019-03-06T17:02:23.291Z,9.70
2019-03-06T17:03:23.285Z,8.50
2019-03-06T17:04:23.271Z,8.30
2019-03-06T17:05:23.282Z,5.60
2019-03-06T17:06:23.255Z,7.90
2019-03-06T17:07:23.234Z,5.70
2019-03-06T17:08:23.229Z,4.50
2019-03-06T17:09:23.222Z,8.20
2019-03-06T17:10:23.200Z,5.40
2019-03-06T17:11:23.218Z,6.30
2019-03-06T17:12:23.178Z,8.50
2019-03-06T17:13:23.172Z,6.90
2019-03-06T17:14:23.184Z,6.30
2019-03-06T17:15:23.140Z,5.00
2019-03-06T17:16:23.130Z,5.90
2019-03-06T17:17:23.144Z,6.20
2019-03-06T17:18:23.112Z,6.10
2019-03-06T17:19:23.101Z,9.60
2019-03-06T17:20:23.090Z,6.80
2019-03-06T17:21:23.078Z,4.40
2019-03-06T17:22:23.068Z,5.40
2019-03-06T17:23:23.082Z,5.90
2019-03-06T17:24:23.067Z,6.80
2019-03-06T17:25:25.879Z,7.90
2019-03-06T17:26:23.048Z,11.20
2019-03-06T17:27:23.017Z,6.40
2019-03-06T17:28:23.002Z,4.50
2019-03-06T17:29:22.998Z,6.00
2019-03-06T17:30:22.977Z,5.50
2019-03-06T17:31:23.004Z,5.20
2019-03-06T17:32:22.960Z,6.10
2019-03-06T17:33:22.947Z,6.30
2019-03-06T17:34:22.934Z,5.80
2019-03-06T17:35:22.920Z,6.40
2019-03-06T17:36:22.911Z,7.00
2019-03-06T17:37:23.040Z,9.10
2019-03-06T17:38:22.896Z,7.00
2019-03-06T17:39:22.900Z,4.20
2019-03-06T17:40:43.878Z,4.20
2019-03-06T17:41:22.863Z,4.90
2019-03-06T17:42:22.871Z,7.30
2019-03-06T17:43:24.559Z,4.30
2019-03-06T17:44:22.870Z,4.10
2019-03-06T17:45:22.826Z,6.70
2019-03-06T17:46:22.799Z,6.10
2019-03-06T17:47:22.791Z,7.10
2019-03-06T17:48:22.808Z,6.90
2019-03-06T17:49:22.783Z,5.40
2019-03-06T17:50:22.756Z,5.10
2019-03-06T17:51:22.746Z,4.90
2019-03-06T17:52:22.735Z,4.50
2019-03-06T17:53:22.724Z,4.70
2019-03-06T17:54:24.577Z,5.10
2019-03-06T17:55:22.700Z,5.20
2019-03-06T17:56:22.693Z,4.80
2019-03-06T17:57:22.681Z,5.50
2019-03-06T17:58:22.672Z,5.80
2019-03-06T17:59:22.666Z,6.40
2019-03-06T18:00:22.676Z,5.00
2019-03-06T18:01:22.638Z,5.20
2019-03-06T18:02:22.634Z,4.70
2019-03-06T18:03:22.613Z,7.70
2019-03-06T18:04:26.074Z,7.20
2019-03-06T18:05:22.594Z,8.20
2019-03-06T18:06:22.573Z,5.00
2019-03-06T18:07:22.572Z,8.20
2019-03-06T18:08:22.554Z,4.90
2019-03-06T18:09:22.574Z,6.20
2019-03-06T18:10:22.544Z,10.70
2019-03-06T18:11:22.526Z,4.60
2019-03-06T18:12:22.528Z,7.90
2019-03-06T18:14:21.526Z,6.70
2019-03-06T18:15:22.482Z,6.30
2019-03-06T18:17:21.454Z,7.30
2019-03-06T18:18:22.446Z,7.50
2019-03-06T18:19:22.470Z,6.70
2019-03-06T18:20:23.027Z,7.80
2019-03-06T18:21:22.412Z,7.20
2019-03-06T18:22:22.400Z,5.50
2019-03-06T18:23:25.036Z,5.00
2019-03-06T18:24:22.399Z,5.10
2019-03-06T18:25:22.362Z,5.80
2019-03-06T18:26:25.026Z,8.50
2019-03-06T18:27:26.229Z,6.30
2019-03-06T18:28:25.018Z,5.30
2019-03-06T18:29:22.360Z,4.40
2019-03-06T18:30:25.024Z,8.60
2019-03-06T18:31:22.303Z,5.40
2019-03-06T18:32:23.727Z,5.30
2019-03-06T18:33:22.274Z,4.60
2019-03-06T18:34:22.266Z,11.50
2019-03-06T18:35:22.304Z,5.00
2019-03-06T18:36:25.308Z,6.30
2019-03-06T18:37:22.238Z,6.40
2019-03-06T18:38:22.237Z,5.30
2019-03-06T18:39:22.213Z,5.90
2019-03-06T18:40:22.244Z,7.40
2019-03-06T18:41:22.226Z,7.20
2019-03-06T18:43:30.901Z,5.10
2019-03-06T18:44:32.595Z,8.30
2019-03-06T18:45:31.871Z,4.80
2019-03-06T18:46:31.863Z,8.00
2019-03-06T18:47:31.862Z,7.30
2019-03-06T18:48:31.836Z,7.70
2019-03-06T18:49:31.828Z,7.60
2019-03-06T18:50:31.852Z,5.60
2019-03-06T18:51:31.805Z,5.60
2019-03-06T18:52:31.787Z,5.90
2019-03-06T18:53:31.777Z,8.40
2019-03-06T18:54:31.818Z,5.10
2019-03-06T18:55:31.751Z,8.20
2019-03-06T18:56:34.594Z,5.20
2019-03-06T18:57:35.150Z,4.80
2019-03-06T18:58:31.728Z,5.10
2019-03-06T18:59:31.710Z,8.60
2019-03-06T19:00:33.640Z,6.20
2019-03-06T19:01:31.701Z,8.20
2019-03-06T19:02:50.503Z,4.90
2019-03-06T19:03:31.673Z,8.90
2019-03-06T19:04:34.595Z,9.20
2019-03-06T19:05:31.669Z,6.20
2019-03-06T19:06:31.633Z,7.10
2019-03-06T19:07:31.714Z,5.00
2019-03-06T19:08:31.831Z,5.10
2019-03-06T19:09:31.669Z,5.00
2019-03-06T19:10:34.092Z,6.10
2019-03-06T19:11:31.579Z,6.20
2019-03-06T19:12:31.570Z,5.80
2019-03-06T19:13:31.566Z,7.20
2019-03-06T19:14:36.638Z,5.20
2019-03-06T19:15:31.533Z,7.50
2019-03-06T19:16:31.527Z,6.20
2019-03-06T19:18:30.513Z,6.60
2019-03-06T19:19:31.492Z,7.70
2019-03-06T19:20:31.507Z,7.30
2019-03-06T19:21:31.465Z,5.10
2019-03-06T19:22:31.479Z,5.90
2019-03-06T19:23:31.453Z,5.80
2019-03-06T19:24:31.461Z,5.20
2019-03-06T19:25:31.447Z,5.60
2019-03-06T19:26:31.417Z,7.80
2019-03-06T19:27:36.647Z,7.40
2019-03-06T19:28:31.390Z,5.70
2019-03-06T19:29:31.381Z,5.10
2019-03-06T19:30:31.369Z,6.30
2019-03-06T19:31:31.367Z,5.40
2019-03-06T19:32:31.349Z,5.60
2019-03-06T19:33:31.480Z,5.70
2019-03-06T19:34:31.321Z,5.50
2019-03-06T19:35:31.313Z,5.50
2019-03-06T19:36:31.301Z,5.10
2019-03-06T19:37:31.290Z,5.10
2019-03-06T19:38:31.284Z,5.80
2019-03-06T19:39:31.292Z,5.10
2019-03-06T19:40:31.255Z,5.10
2019-03-06T19:41:31.251Z,5.70
2019-03-06T19:42:31.260Z,6.00
2019-03-06T19:43:33.145Z,5.90
2019-03-06T19:44:31.253Z,5.50
2019-03-06T19:46:30.199Z,6.10
2019-03-06T19:47:31.177Z,6.60
2019-03-06T19:48:31.171Z,5.60
2019-03-06T19:49:31.184Z,6.80
2019-03-06T19:50:31.159Z,5.90
2019-03-06T19:51:31.179Z,6.20
2019-03-06T19:52:31.135Z,6.10
2019-03-06T19:53:31.160Z,5.20
2019-03-06T19:54:31.135Z,6.10
2019-03-06T19:55:31.111Z,6.80
2019-03-06T19:56:31.085Z,5.50
2019-03-06T19:57:31.092Z,6.20
2019-03-06T19:58:31.067Z,5.60
2019-03-06T19:59:31.071Z,9.00
2019-03-06T20:00:31.040Z,6.40
2019-03-06T20:01:32.082Z,5.60
2019-03-06T20:02:31.049Z,5.80
2019-03-06T20:03:32.305Z,6.50
2019-03-06T20:04:31.004Z,5.70
2019-03-06T20:05:30.980Z,7.10
2019-03-06T20:06:31.051Z,6.20
2019-03-06T20:07:30.965Z,6.00
2019-03-06T20:08:30.957Z,5.90
2019-03-06T20:09:30.945Z,7.20
2019-03-06T20:10:30.925Z,23.20
2019-03-06T20:11:30.907Z,10.90
2019-03-06T20:12:30.945Z,9.50
2019-03-06T20:13:30.893Z,6.00
2019-03-06T20:14:30.911Z,6.10
2019-03-06T20:15:30.894Z,5.80
2019-03-06T20:16:30.893Z,6.10
2019-03-06T20:17:30.845Z,5.60
2019-03-06T20:18:30.879Z,10.90
2019-03-06T20:20:39.607Z,5.90
2019-03-06T20:21:40.552Z,8.30
2019-03-06T20:22:40.543Z,6.90
2019-03-06T20:23:40.560Z,6.50
2019-03-06T20:24:40.520Z,7.10
2019-03-06T20:25:40.514Z,7.80
2019-03-06T20:26:40.506Z,7.10
2019-03-06T20:27:40.505Z,5.60
2019-03-06T20:28:40.821Z,7.40
2019-03-06T20:29:40.467Z,6.40
2019-03-06T20:30:40.456Z,6.40
2019-03-06T20:31:40.445Z,6.50
2019-03-06T20:32:40.435Z,7.00
2019-03-06T20:33:40.452Z,6.60
2019-03-06T20:34:40.462Z,6.50
2019-03-06T20:35:40.402Z,6.50
2019-03-06T20:36:41.266Z,6.00
2019-03-06T20:37:41.266Z,6.10
2019-03-06T20:38:40.402Z,6.70
2019-03-06T20:39:41.767Z,6.50
2019-03-06T20:40:40.346Z,6.60
2019-03-06T20:41:40.334Z,6.50
2019-03-06T20:42:40.322Z,6.10
2019-03-06T20:43:40.311Z,5.60
2019-03-06T20:44:40.301Z,7.70
2019-03-06T20:45:43.267Z,7.40
2019-03-06T20:46:40.278Z,6.70
2019-03-06T20:47:40.265Z,7.20
2019-03-06T20:48:40.260Z,6.30